Time;durP1;ratioP1;P1;durP2;ratioP2;P2;SDS_P1;SDS_P2;PMS_P1;PMS_P2;Temp;Humidity;BMP_temperature;BMP_pressure;BME280_temperature;BME280_humidity;BME280_pressure;Samples;Min_cycle;Max_cycle;Signal;HPM_P1;HPM_P2
2022/03/22 00:00:17;;;;;;;45.85;28.77;;;5.90;99.90;;;;;;5092690;28;20510;-79
2022/03/22 00:02:43;;;;;;;45.15;28.25;;;5.90;99.90;;;;;;5065844;28;20048;-80
2022/03/22 00:05:09;;;;;;;45.63;27.85;;;5.90;99.90;;;;;;5072918;28;20519;-80
2022/03/22 00:07:35;;;;;;;43.90;28.27;;;5.90;99.90;;;;;;5092249;28;20043;-80
2022/03/22 00:10:00;;;;;;;47.63;29.13;;;5.90;99.90;;;;;;5072944;28;20040;-79
2022/03/22 00:12:26;;;;;;;43.10;27.30;;;5.80;99.90;;;;;;5074126;28;20159;-79
2022/03/22 00:14:52;;;;;;;45.95;28.10;;;5.80;99.90;;;;;;5073610;28;20055;-80
2022/03/22 00:17:17;;;;;;;45.85;29.75;;;5.80;99.90;;;;;;5084861;28;20533;-80
2022/03/22 00:19:43;;;;;;;43.47;28.48;;;5.80;99.90;;;;;;5092652;28;20482;-80
2022/03/22 00:22:11;;;;;;;47.08;28.85;;;5.80;99.90;;;;;;5076203;28;20132;-80
2022/03/22 00:24:38;;;;;;;48.13;28.75;;;5.70;99.90;;;;;;5095053;28;20044;-80
2022/03/22 00:27:04;;;;;;;44.95;26.98;;;5.70;99.90;;;;;;5072614;28;20052;-80
2022/03/22 00:29:29;;;;;;;42.00;26.63;;;5.70;99.90;;;;;;5089480;28;20043;-79
2022/03/22 00:31:56;;;;;;;44.70;28.58;;;5.70;99.90;;;;;;5090966;28;20093;-80
2022/03/22 00:34:23;;;;;;;48.63;30.20;;;5.60;99.90;;;;;;5090786;28;20059;-80
2022/03/22 00:36:54;;;;;;;48.80;29.92;;;5.60;99.90;;;;;;5073521;28;20048;-79
2022/03/22 00:39:20;;;;;;;48.40;30.08;;;5.60;99.90;;;;;;5094247;28;20050;-80
2022/03/22 00:41:47;;;;;;;46.42;29.35;;;5.60;99.90;;;;;;5063485;28;20047;-80
2022/03/22 00:44:14;;;;;;;47.60;29.75;;;5.60;99.90;;;;;;5091492;28;20079;-80
2022/03/22 00:46:39;;;;;;;48.28;29.60;;;5.60;99.90;;;;;;5092437;28;20172;-79
2022/03/22 00:49:05;;;;;;;45.40;29.83;;;5.60;99.90;;;;;;5094388;28;20738;-79
2022/03/22 00:51:31;;;;;;;47.05;29.27;;;5.60;99.90;;;;;;5085858;28;20894;-79
2022/03/22 00:54:00;;;;;;;47.95;29.67;;;5.60;99.90;;;;;;5096708;28;20048;-80
2022/03/22 00:56:26;;;;;;;50.10;29.48;;;5.60;99.90;;;;;;5086436;28;20841;-79
2022/03/22 01:00:01;;;;;;;50.50;31.88;;;5.60;99.90;;;;;;5069275;28;20050;-80
2022/03/22 01:01:37;;;;;;;45.95;29.38;;;5.70;99.90;;;;;;5073047;28;20134;-79
2022/03/22 01:04:04;;;;;;;46.05;29.65;;;5.70;99.90;;;;;;5065965;28;20819;-79
2022/03/22 01:06:31;;;;;;;47.97;30.85;;;5.70;99.90;;;;;;5089473;28;20047;-79
2022/03/22 01:08:56;;;;;;;49.88;30.15;;;5.70;99.90;;;;;;5068617;28;20055;-80
2022/03/22 01:11:22;;;;;;;48.95;30.80;;;5.70;99.90;;;;;;5091837;28;20094;-79
2022/03/22 01:13:48;;;;;;;49.38;30.63;;;5.70;99.90;;;;;;5070916;28;20067;-79
2022/03/22 01:16:15;;;;;;;51.15;30.73;;;5.70;99.90;;;;;;5065934;28;20047;-79
2022/03/22 01:18:41;;;;;;;50.53;30.98;;;5.60;99.90;;;;;;5074871;28;20079;-79
2022/03/22 01:21:06;;;;;;;50.42;31.45;;;5.70;99.90;;;;;;5076019;28;20479;-79
2022/03/22 01:23:32;;;;;;;49.10;30.00;;;5.70;99.90;;;;;;5077212;28;20039;-80
2022/03/22 01:25:58;;;;;;;51.50;31.98;;;5.60;99.90;;;;;;5073188;28;20101;-79
2022/03/22 01:28:24;;;;;;;51.75;32.38;;;5.60;99.90;;;;;;5091968;28;20048;-79
2022/03/22 01:30:49;;;;;;;53.50;32.25;;;5.60;99.90;;;;;;5097098;28;20050;-80
2022/03/22 01:33:15;;;;;;;46.55;30.80;;;5.60;99.90;;;;;;5098378;27;20051;-79
2022/03/22 01:35:42;;;;;;;53.88;31.88;;;5.50;99.90;;;;;;5096658;27;20695;-79
2022/03/22 01:38:07;;;;;;;51.40;32.40;;;5.50;99.90;;;;;;5080550;28;20625;-79
2022/03/22 01:40:33;;;;;;;57.38;31.30;;;5.50;99.90;;;;;;5092553;27;20057;-79
2022/03/22 01:42:59;;;;;;;50.97;31.70;;;5.50;99.90;;;;;;5091052;28;20427;-79
2022/03/22 01:45:25;;;;;;;46.85;30.17;;;5.50;99.90;;;;;;5095466;28;20043;-79
2022/03/22 01:47:54;;;;;;;49.22;30.50;;;5.50;99.90;;;;;;5078673;28;20749;-79
2022/03/22 01:50:20;;;;;;;49.33;32.28;;;5.40;99.90;;;;;;5098016;28;20047;-79
2022/03/22 01:52:47;;;;;;;50.83;31.90;;;5.40;99.90;;;;;;5095739;28;20048;-79
2022/03/22 01:55:16;;;;;;;53.10;30.80;;;5.40;99.90;;;;;;5090780;28;20493;-79
2022/03/22 01:57:42;;;;;;;50.72;31.40;;;5.40;99.90;;;;;;5095883;28;20059;-79
2022/03/22 02:00:11;;;;;;;52.38;32.78;;;5.40;99.90;;;;;;5069203;28;20094;-79
2022/03/22 02:08:08;;;;;;;52.95;32.80;;;5.30;99.90;;;;;;5085176;28;20043;-78
2022/03/22 02:10:35;;;;;;;54.15;33.60;;;5.30;99.90;;;;;;5090438;27;20807;-78
2022/03/22 02:13:01;;;;;;;49.33;32.13;;;5.30;99.90;;;;;;5096434;28;20616;-79
2022/03/22 02:15:27;;;;;;;50.95;31.10;;;5.20;99.90;;;;;;5093771;27;20763;-79
2022/03/22 02:17:53;;;;;;;49.97;31.58;;;5.90;99.90;;;;;;5094269;28;20061;-79
2022/03/22 02:20:21;;;;;;;53.40;32.58;;;5.30;99.90;;;;;;5096247;28;20506;-79
2022/03/22 02:23:13;;;;;;;50.58;32.38;;;5.30;99.90;;;;;;5094105;27;20051;-79
2022/03/22 02:25:39;;;;;;;54.42;31.80;;;5.40;99.90;;;;;;5077371;28;20089;-79
2022/03/22 02:28:05;;;;;;;50.92;33.05;;;5.40;99.90;;;;;;5095943;28;20051;-79
2022/03/22 02:30:32;;;;;;;52.10;32.42;;;5.40;99.90;;;;;;5095952;27;20039;-78
2022/03/22 02:33:01;;;;;;;59.30;32.78;;;5.40;99.90;;;;;;5093877;27;20660;-78
2022/03/22 02:35:28;;;;;;;51.38;31.25;;;5.40;99.90;;;;;;5077457;28;20053;-78
2022/03/22 02:37:54;;;;;;;53.13;34.63;;;5.40;99.90;;;;;;5096294;27;20861;-79
2022/03/22 02:40:20;;;;;;;50.53;31.67;;;5.40;99.90;;;;;;5076799;28;20048;-79
2022/03/22 02:42:49;;;;;;;58.38;34.30;;;5.40;99.90;;;;;;5090565;28;20035;-78
2022/03/22 02:45:15;;;;;;;53.10;32.47;;;5.40;99.90;;;;;;5077321;28;20071;-78
2022/03/22 02:47:42;;;;;;;52.25;32.97;;;5.30;99.90;;;;;;5093974;28;20176;-78
2022/03/22 02:50:09;;;;;;;52.38;32.90;;;5.30;99.90;;;;;;5089524;28;20054;-78
2022/03/22 02:52:35;;;;;;;54.03;33.58;;;5.30;99.90;;;;;;5091302;27;20047;-79
2022/03/22 02:55:03;;;;;;;53.53;32.65;;;5.30;99.90;;;;;;5075677;27;20051;-78
2022/03/22 02:57:29;;;;;;;57.80;32.85;;;5.30;99.90;;;;;;5075608;28;20638;-78
2022/03/22 02:59:54;;;;;;;54.05;33.22;;;5.20;99.90;;;;;;5093468;27;20052;-78
2022/03/22 03:02:20;;;;;;;49.55;32.30;;;5.20;99.90;;;;;;5090653;28;20049;-79
2022/03/22 03:04:45;;;;;;;57.65;34.30;;;5.20;99.90;;;;;;5071539;28;20155;-78
2022/03/22 03:07:11;;;;;;;50.35;31.80;;;5.20;99.90;;;;;;5076300;28;20167;-78
2022/03/22 03:09:37;;;;;;;54.92;34.45;;;5.10;99.90;;;;;;5095073;28;20040;-78
2022/03/22 03:12:02;;;;;;;55.22;34.53;;;5.10;99.90;;;;;;5094341;27;20047;-78
2022/03/22 03:14:40;;;;;;;59.38;33.67;;;5.10;99.90;;;;;;5089735;28;20515;-78
2022/03/22 03:17:16;;;;;;;48.67;32.42;;;5.10;99.90;;;;;;5075144;28;20083;-78
2022/03/22 03:19:42;;;;;;;55.67;34.17;;;5.10;99.90;;;;;;5093044;28;20039;-79
2022/03/22 03:22:09;;;;;;;50.33;32.38;;;5.00;99.90;;;;;;5076578;28;20899;-78
2022/03/22 03:24:37;;;;;;;53.35;33.35;;;5.00;99.90;;;;;;5076386;28;20043;-78
2022/03/22 03:27:03;;;;;;;53.55;34.30;;;5.00;99.90;;;;;;5091207;28;20043;-78
2022/03/22 03:29:29;;;;;;;54.33;33.42;;;4.90;99.90;;;;;;5092925;28;20773;-78
2022/03/22 03:31:55;;;;;;;56.72;33.95;;;4.90;99.90;;;;;;5068409;28;20048;-78
2022/03/22 03:34:22;;;;;;;52.30;32.33;;;4.90;99.90;;;;;;5090821;28;20485;-79
2022/03/22 03:36:48;;;;;;;50.80;33.05;;;4.90;99.90;;;;;;5071903;28;20052;-78
2022/03/22 03:39:14;;;;;;;55.40;33.67;;;4.80;99.90;;;;;;5095190;27;20108;-78
2022/03/22 03:41:59;;;;;;;53.67;33.17;;;4.80;99.90;;;;;;5060051;28;20050;-78
2022/03/22 03:47:18;;;;;;;51.40;31.20;;;4.80;99.90;;;;;;5090305;27;20051;-78
2022/03/22 03:49:47;;;;;;;59.78;32.25;;;4.80;99.90;;;;;;5075360;28;20860;-78
2022/03/22 03:52:16;;;;;;;50.70;32.95;;;4.80;99.90;;;;;;5071721;28;20123;-79
2022/03/22 03:54:43;;;;;;;55.22;32.72;;;4.70;99.90;;;;;;5074240;28;20063;-78
2022/03/22 03:57:09;;;;;;;60.25;34.00;;;4.70;99.90;;;;;;5074642;28;20481;-78
2022/03/22 03:59:36;;;;;;;54.50;33.85;;;4.70;99.90;;;;;;5076916;28;20124;-78
2022/03/22 04:02:06;;;;;;;56.92;33.88;;;4.70;99.90;;;;;;5083382;28;20398;-78
2022/03/22 04:04:32;;;;;;;54.08;32.47;;;4.70;99.90;;;;;;5075614;28;20044;-78
2022/03/22 04:06:58;;;;;;;53.22;32.88;;;4.70;99.90;;;;;;5070162;28;20051;-78
2022/03/22 04:09:23;;;;;;;52.90;32.17;;;4.70;99.90;;;;;;5094293;28;20048;-78
2022/03/22 04:11:49;;;;;;;51.95;31.98;;;4.70;99.90;;;;;;5095451;28;20047;-78
2022/03/22 04:14:15;;;;;;;54.97;32.22;;;4.70;99.90;;;;;;5091062;28;20043;-78
2022/03/22 04:16:41;;;;;;;49.20;31.27;;;4.70;99.90;;;;;;5095152;28;20707;-78
2022/03/22 04:19:08;;;;;;;58.10;32.70;;;4.70;99.90;;;;;;5077237;28;20520;-79
2022/03/22 04:21:34;;;;;;;54.80;32.97;;;4.70;99.90;;;;;;5074686;28;20543;-78
2022/03/22 04:24:02;;;;;;;52.42;31.55;;;4.70;99.90;;;;;;5092340;28;20040;-78
2022/03/22 04:26:28;;;;;;;51.30;31.25;;;4.80;99.90;;;;;;5071217;28;20083;-78
2022/03/22 04:34:23;;;;;;;50.50;30.92;;;4.40;99.90;;;;;;5075661;28;20051;-78
2022/03/22 04:36:58;;;;;;;50.10;31.60;;;4.60;99.90;;;;;;5092283;28;20109;-78
2022/03/22 04:39:29;;;;;;;50.50;32.30;;;4.60;99.90;;;;;;5092246;28;20136;-78
2022/03/22 04:41:57;;;;;;;54.25;30.38;;;4.60;99.90;;;;;;5090677;28;20073;-78
2022/03/22 04:44:24;;;;;;;53.10;31.98;;;4.60;99.90;;;;;;5092115;28;20036;-78
2022/03/22 04:46:50;;;;;;;52.83;31.85;;;4.60;99.90;;;;;;5067010;28;20772;-78
2022/03/22 04:49:16;;;;;;;50.38;30.63;;;4.60;99.90;;;;;;5092509;28;20058;-78
2022/03/22 04:57:11;;;;;;;51.53;30.85;;;4.50;99.90;;;;;;5075132;28;20158;-78
2022/03/22 04:59:37;;;;;;;47.95;30.50;;;4.50;99.90;;;;;;5084664;28;20044;-78
2022/03/22 05:02:03;;;;;;;46.30;29.52;;;4.50;99.90;;;;;;5064089;28;20052;-78
2022/03/22 05:04:28;;;;;;;51.78;30.23;;;4.50;99.90;;;;;;5073777;28;20039;-78
2022/03/22 05:06:54;;;;;;;50.20;29.63;;;4.40;99.90;;;;;;5091461;28;20058;-78
2022/03/22 05:09:22;;;;;;;52.88;31.13;;;4.40;99.90;;;;;;5070381;28;20036;-78
2022/03/22 05:11:48;;;;;;;49.60;30.25;;;4.30;99.90;;;;;;5084595;27;20051;-78
2022/03/22 05:14:15;;;;;;;47.03;29.33;;;4.40;99.90;;;;;;5094983;28;20086;-79
2022/03/22 05:16:41;;;;;;;51.97;31.08;;;4.30;99.90;;;;;;5090528;27;20100;-78
2022/03/22 05:19:07;;;;;;;47.92;29.52;;;4.40;99.90;;;;;;5089398;28;20047;-78
2022/03/22 05:21:32;;;;;;;47.53;28.48;;;4.30;99.90;;;;;;5052057;28;20051;-78
2022/03/22 05:23:58;;;;;;;49.85;31.77;;;4.30;99.90;;;;;;5090509;28;20088;-78
2022/03/22 05:26:27;;;;;;;47.95;29.88;;;4.20;99.90;;;;;;5071168;28;20090;-78
2022/03/22 05:28:53;;;;;;;54.13;32.47;;;4.20;99.90;;;;;;5106167;27;20044;-78
2022/03/22 05:31:21;;;;;;;51.50;30.55;;;4.10;99.90;;;;;;5092855;27;20071;-78
2022/03/22 05:33:48;;;;;;;49.75;30.98;;;4.10;99.90;;;;;;5097052;28;20124;-78
2022/03/22 05:36:14;;;;;;;46.70;29.80;;;4.30;99.90;;;;;;5071741;28;20052;-78
2022/03/22 05:38:40;;;;;;;48.75;29.60;;;4.10;99.90;;;;;;5099306;28;20043;-78
2022/03/22 05:41:08;;;;;;;48.15;30.77;;;4.10;99.90;;;;;;5078630;28;20043;-78
2022/03/22 05:43:35;;;;;;;48.10;29.10;;;4.10;99.90;;;;;;5095604;28;20046;-78
2022/03/22 05:46:02;;;;;;;49.65;29.48;;;4.10;99.90;;;;;;5074988;28;20083;-78
2022/03/22 05:48:27;;;;;;;43.78;27.13;;;4.10;99.90;;;;;;5097803;28;20075;-78
2022/03/22 05:50:53;;;;;;;50.22;28.33;;;4.10;99.90;;;;;;5077090;28;20127;-78
2022/03/22 05:53:19;;;;;;;44.95;27.73;;;4.10;99.90;;;;;;5097057;28;20075;-78
2022/03/22 05:55:44;;;;;;;48.47;28.70;;;4.10;99.90;;;;;;5078513;28;20050;-78
2022/03/22 05:58:10;;;;;;;43.50;28.38;;;4.00;99.90;;;;;;5097301;28;20988;-78
2022/03/22 06:00:36;;;;;;;43.78;27.33;;;4.00;99.90;;;;;;5095906;28;20043;-78
2022/03/22 06:03:02;;;;;;;48.08;28.63;;;4.00;99.90;;;;;;5090928;28;20119;-79
2022/03/22 06:05:31;;;;;;;44.15;27.25;;;4.00;99.90;;;;;;5093502;27;20047;-78
2022/03/22 06:07:58;;;;;;;44.92;27.73;;;4.00;99.90;;;;;;5092548;28;20092;-78
2022/03/22 06:10:25;;;;;;;47.80;29.42;;;4.00;99.90;;;;;;5093493;28;20111;-79
2022/03/22 06:12:53;;;;;;;47.80;28.67;;;4.00;99.90;;;;;;5092683;27;20129;-80
2022/03/22 06:15:23;;;;;;;47.45;29.42;;;4.00;99.90;;;;;;5090786;28;20058;-80
2022/03/22 06:17:50;;;;;;;45.67;28.20;;;4.10;99.90;;;;;;5078046;28;20076;-80
2022/03/22 06:20:23;;;;;;;53.40;28.50;;;4.10;99.90;;;;;;5076936;28;20208;-80
2022/03/22 06:22:49;;;;;;;47.33;27.77;;;4.10;99.90;;;;;;5096026;28;20056;-80
2022/03/22 06:25:16;;;;;;;49.00;28.50;;;4.10;99.90;;;;;;5075782;28;20046;-79
2022/03/22 06:27:44;;;;;;;46.30;27.80;;;4.10;99.90;;;;;;5074594;28;20060;-80
2022/03/22 06:30:11;;;;;;;47.00;28.75;;;4.20;99.90;;;;;;5089847;28;20044;-80
2022/03/22 06:32:48;;;;;;;54.20;29.30;;;4.20;99.90;;;;;;5078802;28;20047;-80
2022/03/22 06:35:15;;;;;;;47.53;29.23;;;4.20;99.90;;;;;;5093504;27;20695;-80
2022/03/22 06:37:41;;;;;;;50.47;30.52;;;4.20;99.90;;;;;;5097331;27;20039;-80
2022/03/22 06:40:08;;;;;;;52.28;32.10;;;4.30;99.90;;;;;;5093610;28;20105;-79
2022/03/22 06:42:34;;;;;;;51.03;30.85;;;4.30;99.90;;;;;;5075042;28;20085;-80
2022/03/22 06:45:00;;;;;;;51.47;29.23;;;4.40;99.90;;;;;;5076216;28;20059;-78
2022/03/22 06:47:26;;;;;;;44.35;29.20;;;4.40;99.90;;;;;;5071415;28;20055;-78
2022/03/22 06:49:51;;;;;;;47.80;27.60;;;4.50;99.90;;;;;;5090221;28;20044;-78
2022/03/22 06:52:17;;;;;;;45.85;28.40;;;4.60;99.90;;;;;;5070677;28;20047;-79
2022/03/22 06:54:42;;;;;;;45.50;28.95;;;4.50;99.90;;;;;;5090829;28;20135;-78
2022/03/22 06:57:08;;;;;;;51.15;31.00;;;4.60;99.90;;;;;;5093628;28;20044;-78
2022/03/22 06:59:36;;;;;;;52.55;29.23;;;4.60;99.90;;;;;;5089113;28;20052;-79
2022/03/22 07:02:04;;;;;;;52.35;31.17;;;4.70;99.90;;;;;;5076889;28;20059;-79
2022/03/22 07:04:33;;;;;;;52.13;30.60;;;4.70;99.90;;;;;;5090365;28;20773;-80
2022/03/22 07:06:58;;;;;;;49.00;30.27;;;4.80;99.90;;;;;;5089309;28;20040;-78
2022/03/22 07:09:24;;;;;;;47.70;29.95;;;4.80;99.90;;;;;;5080783;28;20039;-75
2022/03/22 07:11:50;;;;;;;48.13;29.30;;;5.00;99.90;;;;;;5093414;28;20579;-78
2022/03/22 07:14:22;;;;;;;46.25;29.73;;;5.00;99.90;;;;;;5097084;28;20040;-79
2022/03/22 07:16:48;;;;;;;51.08;31.58;;;5.00;99.90;;;;;;5099515;28;20155;-79
2022/03/22 07:19:14;;;;;;;51.30;30.63;;;5.10;99.90;;;;;;5080467;27;20558;-79
2022/03/22 07:21:41;;;;;;;49.75;29.67;;;5.20;99.90;;;;;;5099636;28;20072;-79
2022/03/22 07:24:08;;;;;;;49.97;29.48;;;5.30;99.90;;;;;;5079465;28;20058;-79
2022/03/22 07:26:33;;;;;;;50.17;31.42;;;5.30;99.90;;;;;;5096406;28;20043;-79
2022/03/22 07:28:59;;;;;;;51.80;31.83;;;5.50;99.90;;;;;;5100078;28;20108;-79
2022/03/22 07:31:24;;;;;;;55.20;31.88;;;5.60;99.90;;;;;;5099137;28;20048;-79
2022/03/22 07:33:50;;;;;;;50.78;30.23;;;5.70;99.90;;;;;;5078088;28;20139;-79
2022/03/22 07:36:15;;;;;;;47.50;30.92;;;5.80;99.90;;;;;;5081358;28;20054;-79
2022/03/22 07:38:41;;;;;;;48.13;31.40;;;5.90;99.90;;;;;;5097185;28;20178;-79
2022/03/22 07:41:07;;;;;;;53.95;31.95;;;6.00;99.90;;;;;;5093013;28;20232;-79
2022/03/22 07:43:33;;;;;;;53.78;33.10;;;6.20;99.90;;;;;;5099393;28;20123;-79
2022/03/22 07:45:59;;;;;;;48.03;30.42;;;6.20;99.90;;;;;;5098623;28;20044;-78
2022/03/22 07:48:25;;;;;;;51.70;32.00;;;6.40;99.90;;;;;;5093527;28;20101;-80
2022/03/22 07:53:34;;;;;;;51.30;31.70;;;6.70;99.90;;;;;;5090971;28;20056;-78
2022/03/22 07:56:00;;;;;;;49.80;29.67;;;7.00;99.90;;;;;;5071499;28;20075;-77
2022/03/22 07:58:26;;;;;;;45.88;27.23;;;7.20;99.90;;;;;;5093771;28;20133;-78
2022/03/22 08:00:52;;;;;;;51.97;29.75;;;7.40;99.90;;;;;;5091261;28;20055;-78
2022/03/22 08:03:18;;;;;;;49.55;25.52;;;7.60;99.90;;;;;;5091297;28;20052;-77
2022/03/22 08:05:47;;;;;;;41.75;25.73;;;7.80;99.90;;;;;;5075117;28;20082;-77
2022/03/22 08:08:14;;;;;;;39.33;23.70;;;8.00;99.90;;;;;;5090640;28;20054;-79
2022/03/22 08:10:40;;;;;;;42.05;24.80;;;8.20;99.90;;;;;;5097100;28;20031;-78
2022/03/22 08:13:06;;;;;;;45.42;23.88;;;8.40;99.90;;;;;;5095380;28;20047;-78
2022/03/22 08:15:32;;;;;;;38.40;23.58;;;8.60;99.90;;;;;;5097074;28;20044;-78
2022/03/22 08:17:58;;;;;;;40.03;22.80;;;8.80;99.90;;;;;;5094763;28;20051;-78
2022/03/22 08:20:27;;;;;;;40.30;23.35;;;9.10;99.90;;;;;;5093325;28;20063;-78
2022/03/22 08:22:58;;;;;;;40.03;22.42;;;9.20;99.90;;;;;;5098698;28;20044;-77
2022/03/22 08:25:32;;;;;;;34.72;21.50;;;9.40;99.90;;;;;;5073860;28;20130;-78
2022/03/22 08:28:00;;;;;;;37.47;21.60;;;9.60;99.90;;;;;;5073865;28;20047;-78
2022/03/22 08:30:27;;;;;;;38.28;23.48;;;9.70;99.90;;;;;;5069703;28;20058;-78
2022/03/22 08:32:58;;;;;;;46.90;22.52;;;9.80;99.90;;;;;;5092639;28;20044;-78
2022/03/22 08:35:25;;;;;;;36.33;21.45;;;10.00;99.90;;;;;;5076656;28;20051;-78
2022/03/22 08:37:51;;;;;;;34.70;23.08;;;10.20;99.90;;;;;;5094261;28;20058;-78
2022/03/22 08:40:17;;;;;;;38.70;22.10;;;10.20;99.90;;;;;;5075400;28;20052;-78
2022/03/22 08:42:44;;;;;;;32.15;20.55;;;10.30;99.90;;;;;;5097055;27;20044;-78
2022/03/22 08:45:15;;;;;;;42.20;21.95;;;10.40;99.90;;;;;;5097529;27;20180;-78
2022/03/22 08:47:42;;;;;;;34.72;19.98;;;10.40;99.90;;;;;;5097094;27;20183;-79
2022/03/22 08:50:12;;;;;;;31.33;20.45;;;10.50;99.90;;;;;;5096514;27;20760;-79
2022/03/22 08:52:38;;;;;;;34.15;20.52;;;10.60;99.90;;;;;;5076985;27;20046;-78
2022/03/22 08:55:07;;;;;;;35.97;19.88;;;10.70;99.90;;;;;;5089878;28;20039;-79
2022/03/22 08:57:34;;;;;;;36.72;22.20;;;10.80;99.90;;;;;;5095947;28;20134;-78
2022/03/22 08:59:59;;;;;;;38.03;21.10;;;11.00;99.90;;;;;;5092362;28;20139;-79
2022/03/22 09:02:25;;;;;;;36.50;20.52;;;11.10;99.90;;;;;;5082314;27;20918;-79
2022/03/22 09:07:35;;;;;;;36.08;21.83;;;11.30;99.90;;;;;;5089561;27;20552;-79
2022/03/22 09:10:00;;;;;;;35.15;21.45;;;11.50;99.90;;;;;;5088934;28;20046;-78
2022/03/22 09:12:26;;;;;;;35.03;20.75;;;11.60;99.90;;;;;;5086421;27;20804;-78
2022/03/22 09:14:53;;;;;;;32.63;19.95;;;11.80;99.90;;;;;;5072784;28;20055;-78
2022/03/22 09:17:20;;;;;;;31.80;20.67;;;11.90;99.90;;;;;;5097611;28;20823;-78
2022/03/22 09:19:46;;;;;;;33.20;20.80;;;12.00;99.90;;;;;;5076782;28;20139;-78
2022/03/22 09:22:12;;;;;;;34.80;21.65;;;12.10;99.90;;;;;;5077414;28;20750;-79
2022/03/22 09:24:37;;;;;;;34.25;20.90;;;12.20;99.90;;;;;;5094454;28;20047;-79
2022/03/22 09:27:03;;;;;;;36.08;22.02;;;12.30;99.90;;;;;;5094032;27;20052;-80
2022/03/22 09:29:29;;;;;;;36.95;20.65;;;12.50;99.90;;;;;;5096498;27;20096;-80
2022/03/22 09:31:55;;;;;;;32.90;20.30;;;12.70;99.90;;;;;;5092822;28;20047;-80
2022/03/22 09:34:22;;;;;;;33.33;20.40;;;12.90;99.90;;;;;;5096999;28;20079;-77
2022/03/22 09:36:48;;;;;;;38.17;22.92;;;13.00;99.90;;;;;;5075458;28;20047;-80
2022/03/22 09:39:13;;;;;;;35.60;21.02;;;13.20;99.90;;;;;;5093468;28;20082;-80
2022/03/22 09:41:40;;;;;;;34.75;20.95;;;13.50;99.90;;;;;;5095737;28;20142;-79
2022/03/22 09:44:06;;;;;;;30.27;20.45;;;13.40;99.90;;;;;;5094412;28;20044;-79
2022/03/22 09:46:34;;;;;;;34.58;21.50;;;13.60;99.90;;;;;;5071907;28;20063;-79
2022/03/22 09:49:00;;;;;;;37.05;21.90;;;13.70;99.90;;;;;;5097001;27;20047;-80
2022/03/22 09:54:15;;;;;;;35.42;21.70;;;14.00;99.90;;;;;;5077353;27;20051;-79
2022/03/22 09:56:42;;;;;;;29.50;20.45;;;14.10;99.90;;;;;;5075333;28;20793;-79
2022/03/22 09:59:08;;;;;;;28.50;19.33;;;14.20;99.90;;;;;;5093507;28;20071;-80
2022/03/22 10:01:35;;;;;;;33.50;20.50;;;14.40;99.90;;;;;;5077383;28;20601;-79
2022/03/22 10:04:13;;;;;;;33.13;19.58;;;14.60;99.60;;;;;;5086465;28;20652;-79
2022/03/22 10:06:50;;;;;;;32.28;19.42;;;14.70;99.10;;;;;;5079807;28;20039;-79
2022/03/22 10:09:49;;;;;;;32.20;20.52;;;14.90;96.60;;;;;;5093677;28;20050;-79
2022/03/22 10:12:35;;;;;;;27.60;17.77;;;15.00;97.60;;;;;;5071030;28;20171;-81
2022/03/22 10:15:13;;;;;;;30.27;17.88;;;15.20;96.10;;;;;;5082492;28;20123;-81
2022/03/22 10:17:39;;;;;;;29.08;19.30;;;15.40;95.00;;;;;;5067208;28;20055;-81
2022/03/22 10:20:06;;;;;;;31.50;20.50;;;15.40;96.00;;;;;;5071058;28;20060;-78
2022/03/22 10:22:34;;;;;;;30.20;19.88;;;15.50;96.50;;;;;;5091408;27;20573;-78
2022/03/22 10:25:03;;;;;;;31.17;19.60;;;15.70;95.70;;;;;;5078453;28;20044;-79
2022/03/22 10:27:36;;;;;;;30.58;19.33;;;15.80;93.80;;;;;;5095157;27;21867;-79
2022/03/22 10:30:05;;;;;;;29.70;18.65;;;15.90;94.80;;;;;;5096386;28;20051;-78
2022/03/22 10:32:43;;;;;;;30.23;20.02;;;16.00;95.00;;;;;;5077036;28;20139;-78
2022/03/22 10:35:22;;;;;;;34.47;20.45;;;16.10;93.90;;;;;;5076268;28;20756;-78
2022/03/22 10:38:09;;;;;;;34.47;19.30;;;16.30;93.60;;;;;;5093110;27;20047;-79
2022/03/22 10:40:44;;;;;;;36.88;21.00;;;16.50;91.70;;;;;;5076064;28;20058;-79
2022/03/22 10:43:11;;;;;;;36.92;21.90;;;16.50;90.90;;;;;;5074016;28;20089;-78
2022/03/22 10:45:53;;;;;;;34.75;21.77;;;16.70;92.20;;;;;;5077298;28;20044;-79
2022/03/22 10:48:27;;;;;;;34.03;22.58;;;16.90;91.70;;;;;;5074286;28;20063;-79
2022/03/22 10:50:55;;;;;;;37.10;23.75;;;17.00;92.20;;;;;;5099027;27;20138;-79
2022/03/22 10:53:23;;;;;;;37.20;23.92;;;17.10;92.60;;;;;;5083488;28;20806;-79
2022/03/22 10:55:50;;;;;;;36.00;22.92;;;17.30;92.20;;;;;;5067473;28;20096;-79
2022/03/22 10:58:20;;;;;;;34.25;22.50;;;17.40;93.30;;;;;;5092437;28;20048;-79
2022/03/22 11:00:47;;;;;;;33.58;22.27;;;17.60;93.20;;;;;;5077203;28;20065;-79
2022/03/22 11:03:13;;;;;;;28.52;20.70;;;17.70;92.70;;;;;;5085975;28;20132;-79
2022/03/22 11:05:40;;;;;;;35.22;21.75;;;17.80;91.10;;;;;;5095146;27;20039;-79
2022/03/22 11:08:06;;;;;;;33.35;21.77;;;17.90;91.10;;;;;;5090263;27;20052;-80
2022/03/22 11:10:32;;;;;;;35.75;21.15;;;18.00;90.40;;;;;;5091999;27;20406;-79
2022/03/22 11:12:59;;;;;;;34.17;21.95;;;18.10;90.40;;;;;;5094989;28;20047;-79
2022/03/22 11:15:26;;;;;;;29.95;20.75;;;18.20;90.20;;;;;;5092227;28;20047;-80
2022/03/22 11:17:52;;;;;;;32.75;22.15;;;18.30;89.70;;;;;;5091206;28;20093;-79
2022/03/22 11:20:18;;;;;;;32.15;22.58;;;18.40;87.00;;;;;;5070713;28;20175;-81
2022/03/22 11:22:56;;;;;;;32.58;21.60;;;18.40;87.60;;;;;;5084458;28;20065;-79
2022/03/22 11:25:31;;;;;;;34.92;21.20;;;18.50;87.00;;;;;;5095457;28;20053;-79
2022/03/22 11:27:59;;;;;;;34.25;22.40;;;18.60;87.90;;;;;;5096001;28;20783;-78
2022/03/22 11:30:27;;;;;;;32.20;21.98;;;18.60;87.60;;;;;;5081721;28;20043;-78
2022/03/22 11:35:57;;;;;;;29.70;20.83;;;18.80;85.40;;;;;;5090534;27;20756;-79
2022/03/22 11:38:53;;;;;;;35.25;21.63;;;18.90;83.50;;;;;;5093856;28;20543;-79
2022/03/22 11:44:41;;;;;;;34.53;22.15;;;19.10;82.00;;;;;;5085559;28;20047;-79
2022/03/22 11:47:20;;;;;;;35.25;20.63;;;19.20;81.60;;;;;;5090006;28;20783;-79
2022/03/22 11:49:55;;;;;;;35.15;22.63;;;19.30;80.20;;;;;;5077540;28;20044;-79
2022/03/22 11:52:35;;;;;;;36.35;20.63;;;19.40;80.60;;;;;;5079632;28;20077;-79
2022/03/22 11:55:10;;;;;;;34.67;21.02;;;19.50;76.80;;;;;;5077450;28;20048;-80
2022/03/22 11:57:46;;;;;;;32.75;21.77;;;19.60;76.50;;;;;;5090153;28;20043;-80
2022/03/22 12:00:15;;;;;;;31.20;20.25;;;19.60;73.70;;;;;;5089136;28;20062;-80
2022/03/22 12:02:52;;;;;;;31.00;20.15;;;19.70;75.70;;;;;;5083406;28;20082;-80
2022/03/22 12:05:22;;;;;;;32.70;20.30;;;19.70;74.10;;;;;;5098552;28;20587;-80
2022/03/22 12:07:49;;;;;;;31.48;20.10;;;19.80;74.90;;;;;;5092261;28;20524;-79
2022/03/22 12:10:17;;;;;;;32.00;21.00;;;19.90;75.00;;;;;;5088624;28;20043;-80
2022/03/22 12:12:52;;;;;;;36.25;19.73;;;19.90;73.50;;;;;;5092009;28;20606;-80
2022/03/22 12:15:21;;;;;;;31.15;21.13;;;20.00;73.20;;;;;;5080160;28;20106;-80
2022/03/22 12:17:48;;;;;;;33.97;20.63;;;20.10;72.90;;;;;;5091793;28;20092;-80
2022/03/22 12:20:16;;;;;;;33.03;20.75;;;20.20;72.80;;;;;;5081814;28;20091;-80
2022/03/22 12:22:49;;;;;;;31.95;20.58;;;20.20;72.20;;;;;;5091162;28;20056;-80
2022/03/22 12:25:17;;;;;;;38.88;21.25;;;20.40;71.50;;;;;;5084747;28;20062;-82
2022/03/22 12:28:07;;;;;;;35.85;19.95;;;20.40;71.60;;;;;;5091744;28;20040;-82
2022/03/22 12:30:38;;;;;;;32.78;20.27;;;20.50;68.50;;;;;;5086648;28;20075;-82
2022/03/22 12:33:18;;;;;;;31.92;20.35;;;20.60;67.20;;;;;;5091344;28;20059;-80
2022/03/22 12:35:46;;;;;;;33.10;21.40;;;20.70;66.60;;;;;;5087948;28;20788;-79
2022/03/22 12:38:13;;;;;;;35.10;20.23;;;20.70;68.60;;;;;;5093079;28;20632;-79
2022/03/22 12:40:38;;;;;;;31.80;20.38;;;20.80;68.70;;;;;;5090746;28;20052;-79
2022/03/22 12:43:11;;;;;;;35.97;21.27;;;20.80;68.30;;;;;;5089573;28;20036;-77
2022/03/22 12:45:42;;;;;;;34.38;20.45;;;20.90;67.20;;;;;;5094353;28;20141;-77
2022/03/22 12:48:08;;;;;;;29.58;20.20;;;20.90;67.00;;;;;;5092496;28;20043;-77
2022/03/22 12:50:33;;;;;;;29.58;20.27;;;20.90;67.00;;;;;;5091974;28;20050;-76
2022/03/22 12:52:59;;;;;;;32.38;20.50;;;21.00;66.70;;;;;;5092841;28;20150;-77
2022/03/22 12:55:27;;;;;;;39.38;21.23;;;21.00;66.20;;;;;;5087464;28;20547;-78
2022/03/22 12:57:56;;;;;;;32.72;20.33;;;21.10;64.50;;;;;;5092294;28;20040;-80
2022/03/22 13:00:29;;;;;;;33.05;21.50;;;21.00;65.50;;;;;;5071762;28;20064;-80
2022/03/22 13:02:56;;;;;;;31.85;20.27;;;21.10;65.30;;;;;;5087571;28;20397;-80
2022/03/22 13:05:26;;;;;;;32.38;20.23;;;21.10;66.70;;;;;;5085822;28;20223;-81
2022/03/22 13:07:53;;;;;;;34.08;21.13;;;21.20;64.80;;;;;;5089840;28;20048;-81
2022/03/22 13:13:03;;;;;;;32.67;20.40;;;21.20;65.20;;;;;;5080732;28;20135;-81